createdAt,value
2017-12-02T00:02:17.920Z,100749.45
2017-12-02T00:05:19.228Z,100757.66
2017-12-02T00:08:20.604Z,100748.77
2017-12-02T00:11:22.168Z,100762.73
2017-12-02T00:14:23.520Z,100760.09
2017-12-02T00:17:24.914Z,100760.53
2017-12-02T00:20:26.269Z,100775.27
2017-12-02T00:23:27.680Z,100776.63
2017-12-02T00:26:29.820Z,100782.63
2017-12-02T00:29:31.235Z,100783.08
2017-12-02T00:32:32.616Z,100781.59
2017-12-02T00:35:34.016Z,100789.48
2017-12-02T00:38:36.321Z,100792.41
2017-12-02T00:41:37.728Z,100802.04
2017-12-02T00:44:39.158Z,100802.34
2017-12-02T00:47:41.328Z,100808.91
2017-12-02T00:50:42.883Z,100813.75
2017-12-02T00:53:44.221Z,100810.98
2017-12-02T00:56:45.586Z,100814.64
2017-12-02T00:59:47.676Z,100822.30
2017-12-02T01:02:49.799Z,100821.41
2017-12-02T01:05:51.184Z,100814.31
2017-12-02T01:08:52.590Z,100818.95
2017-12-02T01:11:55.358Z,100821.06
2017-12-02T01:14:56.823Z,100838.90
2017-12-02T01:17:58.220Z,100834.15
2017-12-02T01:20:59.619Z,100848.49
2017-12-02T01:24:01.084Z,100842.01
2017-12-02T01:27:02.506Z,100841.38
2017-12-02T01:30:04.701Z,100849.85
2017-12-02T01:33:06.140Z,100853.63
2017-12-02T01:36:07.498Z,100859.39
2017-12-02T01:39:08.872Z,100858.25
2017-12-02T01:42:10.251Z,100857.41
2017-12-02T01:45:11.659Z,100866.03
2017-12-02T01:48:13.092Z,100854.04
2017-12-02T01:51:14.428Z,100858.77
2017-12-02T01:54:16.556Z,100861.38
2017-12-02T01:57:17.900Z,100872.45
2017-12-02T02:00:19.303Z,100876.93
2017-12-02T02:03:21.361Z,100883.07
2017-12-02T02:06:26.605Z,100883.84
2017-12-02T02:09:28.744Z,100884.92
2017-12-02T02:12:30.152Z,100867.44
2017-12-02T02:15:31.560Z,100881.20
2017-12-02T02:18:33.172Z,100874.95
2017-12-02T02:21:34.560Z,100885.77
2017-12-02T02:24:35.975Z,100892.81
2017-12-02T02:27:37.352Z,100890.83
2017-12-02T02:30:38.720Z,100892.93
2017-12-02T02:33:40.093Z,100892.03
2017-12-02T02:36:42.217Z,100901.80
2017-12-02T02:39:44.296Z,100899.98
2017-12-02T02:42:45.726Z,100900.49
2017-12-02T02:45:47.058Z,100909.86
2017-12-02T02:48:49.024Z,100902.92
2017-12-02T02:51:50.373Z,100905.54
2017-12-02T02:54:51.778Z,100916.52
2017-12-02T02:57:53.139Z,100912.71
2017-12-02T03:00:55.280Z,100911.27
2017-12-02T03:03:56.677Z,100923.91
2017-12-02T03:06:58.027Z,100918.70
2017-12-02T03:10:02.556Z,100924.55
2017-12-02T03:13:03.968Z,100927.08
2017-12-02T03:16:05.431Z,100923.38
2017-12-02T03:19:07.516Z,100923.47
2017-12-02T03:22:09.673Z,100919.30
2017-12-02T03:25:13.152Z,100927.08
2017-12-02T03:28:15.588Z,100924.98
2017-12-02T03:31:17.005Z,100926.55
2017-12-02T03:34:19.149Z,100928.20
2017-12-02T03:37:20.536Z,100920.36
2017-12-02T03:40:21.939Z,100926.06
2017-12-02T03:43:23.387Z,100931.94
2017-12-02T03:46:25.492Z,100932.66
2017-12-02T03:49:26.917Z,100937.51
2017-12-02T03:52:28.356Z,100941.48
2017-12-02T03:55:29.797Z,100943.57
2017-12-02T03:58:31.220Z,100948.74
2017-12-02T04:01:32.642Z,100944.02
2017-12-02T04:04:34.044Z,100948.81
2017-12-02T04:07:35.445Z,100949.64
2017-12-02T04:10:36.908Z,100958.02
2017-12-02T04:13:39.031Z,100961.30
2017-12-02T04:16:40.509Z,100958.34
2017-12-02T04:19:41.965Z,100966.14
2017-12-02T04:22:43.338Z,100967.94
2017-12-02T04:25:45.488Z,100969.27
2017-12-02T04:28:46.963Z,100972.88
2017-12-02T04:31:49.172Z,100972.46
2017-12-02T04:34:50.558Z,100964.09
2017-12-02T04:37:51.949Z,100961.73
2017-12-02T04:40:53.448Z,100963.05
2017-12-02T04:43:54.856Z,100963.61
2017-12-02T04:46:56.263Z,100962.69
2017-12-02T04:49:58.150Z,100955.08
2017-12-02T04:52:59.997Z,100948.94
2017-12-02T04:56:02.538Z,100950.69
2017-12-02T04:59:03.977Z,100959.43
2017-12-02T05:02:05.516Z,100954.23
2017-12-02T05:05:06.980Z,100961.52
2017-12-02T05:08:08.368Z,100954.86
2017-12-02T05:11:09.772Z,100962.84
2017-12-02T05:14:11.152Z,100971.22
2017-12-02T05:17:12.672Z,100975.80
2017-12-02T05:20:14.095Z,100978.88
2017-12-02T05:23:15.501Z,100980.23
2017-12-02T05:26:16.957Z,100988.36
2017-12-02T05:29:18.408Z,100992.34
2017-12-02T05:32:19.812Z,100988.55
2017-12-02T05:35:21.937Z,100983.44
2017-12-02T05:38:23.321Z,100977.02
2017-12-02T05:41:24.720Z,100984.69
2017-12-02T05:44:26.148Z,100979.08
2017-12-02T05:47:28.291Z,100982.88
2017-12-02T05:50:29.691Z,100988.34
2017-12-02T05:53:31.104Z,100996.37
2017-12-02T05:56:32.470Z,101006.34
2017-12-02T05:59:34.646Z,101003.78
2017-12-02T06:02:36.024Z,101001.06
2017-12-02T06:05:37.549Z,100995.17
2017-12-02T06:08:39.007Z,100996.37
2017-12-02T06:11:40.397Z,101012.67
2017-12-02T06:14:41.813Z,101008.86
2017-12-02T06:17:43.366Z,101013.39
2017-12-02T06:20:44.931Z,101022.24
2017-12-02T06:23:46.335Z,101030.02
2017-12-02T06:26:47.744Z,101037.53
2017-12-02T06:29:49.155Z,101039.91
2017-12-02T06:32:51.283Z,101040.98
2017-12-02T06:35:52.768Z,101039.58
2017-12-02T06:38:54.158Z,101045.33
2017-12-02T06:41:55.560Z,101054.37
2017-12-02T06:44:56.940Z,101052.42
2017-12-02T06:47:59.053Z,101060.19
2017-12-02T06:51:00.452Z,101069.50
2017-12-02T06:54:02.644Z,101068.39
2017-12-02T06:57:04.052Z,101067.80
2017-12-02T07:00:05.484Z,101073.95
2017-12-02T07:03:06.915Z,101074.20
2017-12-02T07:06:08.341Z,101078.59
2017-12-02T07:09:10.492Z,101082.84
2017-12-02T07:12:12.652Z,101082.55
2017-12-02T07:15:14.052Z,101075.31
2017-12-02T07:18:15.485Z,101080.46
2017-12-02T07:21:16.899Z,101092.64
2017-12-02T07:24:18.380Z,101088.41
2017-12-02T07:27:20.504Z,101090.32
2017-12-02T07:30:21.932Z,101088.50
2017-12-02T07:33:23.348Z,101095.81
2017-12-02T07:36:25.505Z,101099.52
2017-12-02T07:39:27.281Z,101102.52
2017-12-02T07:42:28.677Z,101111.28
2017-12-02T07:45:30.092Z,101096.17
2017-12-02T07:48:32.347Z,101110.00
2017-12-02T07:51:34.501Z,101112.81
2017-12-02T07:54:36.093Z,101109.78
2017-12-02T07:57:37.504Z,101115.13
2017-12-02T08:00:38.932Z,101123.11
2017-12-02T08:03:40.339Z,101112.91
2017-12-02T08:06:41.751Z,101126.46
2017-12-02T08:09:43.144Z,101117.68
2017-12-02T08:12:44.585Z,101121.69
2017-12-02T08:15:46.843Z,101118.81
2017-12-02T08:18:48.269Z,101118.56
2017-12-02T08:21:49.682Z,101114.09
2017-12-02T08:24:51.068Z,101118.98
2017-12-02T08:27:52.484Z,101106.17
2017-12-02T08:30:54.304Z,101114.55
2017-12-02T08:33:55.755Z,101115.39
2017-12-02T08:36:57.192Z,101122.32
2017-12-02T08:39:58.611Z,101123.07
2017-12-02T08:42:59.996Z,101123.70
2017-12-02T08:46:01.424Z,101137.92
2017-12-02T08:49:02.792Z,101120.70
2017-12-02T08:52:04.265Z,101135.20
2017-12-02T08:55:05.660Z,101136.75
2017-12-02T08:58:07.154Z,101139.06
2017-12-02T09:01:08.559Z,101140.34
2017-12-02T09:04:10.137Z,101144.58
2017-12-02T09:07:11.564Z,101134.55
2017-12-02T09:10:12.980Z,101147.76
2017-12-02T09:13:14.412Z,101148.37
2017-12-02T09:16:15.826Z,101149.02
2017-12-02T09:19:17.213Z,101166.58
2017-12-02T09:22:18.617Z,101166.60
2017-12-02T10:06:07.691Z,101200.86
2017-12-02T10:09:09.288Z,101204.75
2017-12-02T10:12:11.466Z,101200.41
2017-12-02T10:15:12.900Z,101199.94
2017-12-02T10:18:15.026Z,101196.04
2017-12-02T10:21:16.435Z,101197.17
2017-12-02T10:24:18.603Z,101201.12
2017-12-02T10:27:20.796Z,101205.88
2017-12-02T10:30:22.384Z,101203.09
2017-12-02T10:33:24.103Z,101209.13
2017-12-02T10:36:25.497Z,101208.05
2017-12-02T10:39:26.899Z,101202.07
2017-12-02T10:42:29.017Z,101208.56
2017-12-02T10:45:30.447Z,101197.98
2017-12-02T10:48:31.928Z,101198.09
2017-12-02T10:51:33.448Z,101202.07
2017-12-02T10:54:34.899Z,101196.44
2017-12-02T10:57:36.323Z,101180.74
2017-12-02T11:00:38.479Z,101193.81
2017-12-02T11:03:39.913Z,101194.14
2017-12-02T11:06:41.282Z,101193.35
2017-12-02T11:09:42.672Z,101199.31
2017-12-02T11:12:44.100Z,101198.36
2017-12-02T11:15:46.294Z,101188.55
2017-12-02T11:18:47.747Z,101185.53
2017-12-02T11:21:49.139Z,101182.63
2017-12-02T11:24:50.555Z,101183.59
2017-12-02T11:27:51.952Z,101175.53
2017-12-02T11:30:53.388Z,101180.47
2017-12-02T11:33:54.789Z,101175.78
2017-12-02T11:36:56.919Z,101179.63
2017-12-02T11:39:58.403Z,101104.81
2017-12-02T11:43:00.540Z,101172.07
2017-12-02T11:46:01.995Z,101171.14
2017-12-02T11:49:03.374Z,101163.44
2017-12-02T11:52:05.547Z,101161.18
2017-12-02T11:55:07.656Z,101162.04
2017-12-02T11:58:09.072Z,101169.73
2017-12-02T12:01:11.230Z,101170.77
2017-12-02T12:04:13.364Z,101170.09
2017-12-02T12:07:14.712Z,101164.25
2017-12-02T12:10:16.064Z,101149.41
2017-12-02T12:13:17.482Z,101156.78
2017-12-02T12:16:18.818Z,101159.61
2017-12-02T12:19:20.189Z,101152.70
2017-12-02T12:22:21.528Z,101140.48
2017-12-02T12:25:22.948Z,101149.34
2017-12-02T12:28:25.044Z,101151.89
2017-12-02T12:31:26.412Z,101142.23
2017-12-02T12:34:27.845Z,101134.78
2017-12-02T12:37:29.202Z,101150.75
2017-12-02T12:40:30.558Z,101152.98
2017-12-02T12:43:31.900Z,101151.55
2017-12-02T12:46:33.291Z,101143.24
2017-12-02T12:49:34.684Z,101141.99
2017-12-02T12:52:36.871Z,101139.73
2017-12-02T12:55:38.238Z,101137.23
2017-12-02T12:58:39.656Z,101132.24
2017-12-02T13:01:41.831Z,101134.77
2017-12-02T13:04:43.193Z,101115.52
2017-12-02T13:07:44.608Z,101115.53
2017-12-02T13:10:45.986Z,101119.39
2017-12-02T13:13:47.394Z,101113.64
2017-12-02T13:16:49.462Z,101110.19
2017-12-02T13:19:50.839Z,101121.16
2017-12-02T13:22:52.918Z,101130.35
2017-12-02T13:25:55.073Z,101126.34
2017-12-02T13:28:56.434Z,101132.06
2017-12-02T13:31:58.555Z,101149.36
2017-12-02T13:34:59.923Z,101150.25
2017-12-02T13:38:01.297Z,101160.55
2017-12-02T13:41:03.460Z,101151.22
2017-12-02T13:44:04.816Z,101146.77
2017-12-02T13:47:07.009Z,101158.45
2017-12-02T13:50:08.440Z,101164.84
2017-12-02T13:53:10.568Z,101166.96
2017-12-02T13:56:11.921Z,101164.44
2017-12-02T13:59:13.320Z,101150.29
2017-12-02T14:02:15.445Z,101159.70
2017-12-02T14:05:16.848Z,101160.98
2017-12-02T14:08:18.192Z,101163.75
2017-12-02T14:11:20.276Z,101168.14
2017-12-02T14:14:21.673Z,101165.12
2017-12-02T14:17:23.056Z,101160.35
2017-12-02T14:20:25.167Z,101154.22
2017-12-02T14:23:26.544Z,101160.45
2017-12-02T14:26:27.960Z,101153.33
2017-12-02T14:29:29.314Z,101158.30
2017-12-02T14:32:30.691Z,101167.39
2017-12-02T14:35:32.039Z,101169.36
2017-12-02T14:38:33.413Z,101175.25
2017-12-02T14:41:34.749Z,101168.41
2017-12-02T14:44:36.126Z,101179.63
2017-12-02T14:47:38.264Z,101168.41
2017-12-02T14:50:39.667Z,101178.71
2017-12-02T14:53:41.088Z,101171.62
2017-12-02T14:56:43.202Z,101174.89
2017-12-02T14:59:44.600Z,101174.55
2017-12-02T15:02:45.953Z,101178.38
2017-12-02T15:05:47.360Z,101172.56
2017-12-02T15:08:49.632Z,101174.45
2017-12-02T15:11:51.094Z,101172.84
2017-12-02T15:14:52.576Z,101172.42
2017-12-02T15:17:53.904Z,101169.56
2017-12-02T15:20:55.300Z,101169.45
2017-12-02T15:23:57.427Z,101171.55
2017-12-02T15:26:58.855Z,101172.89
2017-12-02T15:30:00.205Z,101174.83
2017-12-02T15:33:01.552Z,101173.09
2017-12-02T15:36:02.956Z,101176.03
2017-12-02T15:39:04.407Z,101165.00
2017-12-02T15:42:05.768Z,101171.66
2017-12-02T15:45:07.925Z,101176.05
2017-12-02T15:48:09.375Z,101179.09
2017-12-02T15:51:10.772Z,101179.76
2017-12-02T15:54:12.229Z,101177.36
2017-12-02T15:57:13.643Z,101176.86
2017-12-02T16:00:15.860Z,101171.28
2017-12-02T16:03:17.287Z,101185.30
2017-12-02T16:06:18.776Z,101190.59
2017-12-02T16:09:20.136Z,101190.27
2017-12-02T16:12:21.547Z,101195.38
2017-12-02T16:15:22.948Z,101194.26
2017-12-02T16:18:24.349Z,101187.64
2017-12-02T16:21:25.760Z,101201.20
2017-12-02T16:24:27.148Z,101196.97
2017-12-02T16:27:28.832Z,101199.59
2017-12-02T16:30:30.250Z,101185.95
2017-12-02T16:33:32.365Z,101189.28
2017-12-02T16:36:33.709Z,101189.17
2017-12-02T16:39:35.144Z,101196.86
2017-12-02T16:42:36.537Z,101192.69
2017-12-02T16:45:37.990Z,101189.86
2017-12-02T16:48:39.407Z,101200.45
2017-12-02T16:51:40.790Z,101190.72
2017-12-02T16:54:42.191Z,101185.71
2017-12-02T16:57:43.601Z,101200.11
2017-12-02T17:00:45.012Z,101193.86
2017-12-02T17:03:46.407Z,101193.42
2017-12-02T17:06:47.807Z,101196.55
2017-12-02T17:09:49.213Z,101201.14
2017-12-02T17:12:50.670Z,101194.91
2017-12-02T17:15:52.788Z,101194.21
2017-12-02T17:18:54.216Z,101193.95
2017-12-02T17:21:55.635Z,101190.95
2017-12-02T17:24:57.072Z,101199.86
2017-12-02T17:27:58.452Z,101192.80
2017-12-02T17:31:00.638Z,101194.67
2017-12-02T17:34:02.048Z,101192.22
2017-12-02T17:37:03.493Z,101188.94
2017-12-02T17:40:04.921Z,101184.02
2017-12-02T17:43:06.356Z,101190.32
2017-12-02T17:46:07.824Z,101193.11
2017-12-02T17:49:09.231Z,101197.91
2017-12-02T17:52:11.345Z,101188.63
2017-12-02T17:55:12.748Z,101187.65
2017-12-02T17:58:14.908Z,101197.77
2017-12-02T18:01:16.273Z,101191.91
2017-12-02T18:04:18.446Z,101195.33
2017-12-02T18:07:20.556Z,101195.83
2017-12-02T18:10:21.913Z,101198.92
2017-12-02T18:13:24.116Z,101199.85
2017-12-02T18:16:25.489Z,101195.19
2017-12-02T18:19:27.807Z,101198.58
2017-12-02T18:22:29.140Z,101210.01
2017-12-02T18:25:30.493Z,101193.27
2017-12-02T18:28:32.184Z,101190.59
2017-12-02T18:31:40.448Z,101202.67
2017-12-02T18:34:41.873Z,101189.89
2017-12-02T18:37:43.975Z,101193.09
2017-12-02T18:40:45.380Z,101199.83
2017-12-02T18:43:46.732Z,101205.09
2017-12-02T18:46:48.118Z,101213.25
2017-12-02T18:49:49.503Z,101207.20
2017-12-02T18:52:50.903Z,101206.42
2017-12-02T18:55:53.055Z,101206.59
2017-12-02T18:58:54.385Z,101214.19
2017-12-02T19:01:55.778Z,101203.39
2017-12-02T19:04:57.875Z,101205.76
2017-12-02T19:07:59.252Z,101202.16
2017-12-02T19:11:00.584Z,101202.89
2017-12-02T19:14:02.012Z,101201.22
2017-12-02T19:17:03.399Z,101205.17
2017-12-02T19:20:04.813Z,101195.70
2017-12-02T19:23:06.231Z,101201.25
2017-12-02T19:26:07.620Z,101191.86
2017-12-02T19:29:09.063Z,101191.86
2017-12-02T19:32:10.491Z,101194.13
2017-12-02T19:35:12.669Z,101196.91
2017-12-02T19:38:14.822Z,101192.90
2017-12-02T19:41:16.204Z,101193.72
2017-12-02T19:44:17.557Z,101197.33
2017-12-02T19:47:18.997Z,101191.67
2017-12-02T19:50:21.264Z,101199.95
2017-12-02T19:53:23.382Z,101210.03
2017-12-02T19:56:24.839Z,101204.47
2017-12-02T19:59:26.354Z,101217.80
2017-12-02T20:02:28.530Z,101213.28
2017-12-02T20:05:29.952Z,101216.80
2017-12-02T20:08:31.429Z,101212.28
2017-12-02T20:11:33.603Z,101210.34
2017-12-02T20:14:35.096Z,101207.29
2017-12-02T20:17:36.596Z,101204.97
2017-12-02T20:20:38.720Z,101203.48
2017-12-02T20:23:40.222Z,101194.03
2017-12-02T20:26:41.634Z,101199.20
2017-12-02T20:29:43.032Z,101209.81
2017-12-02T20:32:45.177Z,101199.98
2017-12-02T20:35:46.573Z,101204.30
2017-12-02T20:38:47.934Z,101198.08
2017-12-02T20:41:49.368Z,101197.45
2017-12-02T20:44:50.783Z,101185.50
2017-12-02T20:47:52.144Z,101193.14
2017-12-02T20:50:53.560Z,101182.27
2017-12-02T20:53:54.955Z,101182.37
2017-12-02T20:56:56.349Z,101179.27
2017-12-02T20:59:57.773Z,101159.09
2017-12-02T21:02:59.179Z,101163.63
2017-12-02T21:06:00.724Z,101155.03
2017-12-02T21:09:02.172Z,101169.05
2017-12-02T21:12:03.730Z,101170.53
2017-12-02T21:15:05.201Z,101174.48
2017-12-02T21:18:07.386Z,101163.50
2017-12-02T21:21:08.803Z,101153.77
2017-12-02T21:24:10.312Z,101157.78
2017-12-02T21:27:11.740Z,101158.69
2017-12-02T21:30:13.222Z,101156.09
2017-12-02T21:33:14.766Z,101132.78
2017-12-02T21:36:16.256Z,101163.20
2017-12-02T21:39:17.807Z,101154.14
2017-12-02T21:42:20.067Z,101156.34
2017-12-02T21:45:21.521Z,101142.15
2017-12-02T21:48:22.995Z,101159.11
2017-12-02T21:51:27.268Z,101159.63
2017-12-02T21:54:28.888Z,101159.42
2017-12-02T21:57:30.734Z,101147.96
2017-12-02T22:00:32.925Z,101155.35
2017-12-02T22:03:37.310Z,101160.41
2017-12-02T22:06:39.584Z,101151.19
2017-12-02T22:09:41.096Z,101160.86
2017-12-02T22:12:42.652Z,101163.45
2017-12-02T22:15:44.306Z,101164.22
2017-12-02T22:18:47.672Z,101149.06
2017-12-02T22:21:49.144Z,101158.22
2017-12-02T22:24:51.488Z,101149.31
2017-12-02T22:27:54.876Z,101141.16
2017-12-02T22:30:57.464Z,101136.70
2017-12-02T22:33:58.952Z,101138.63
2017-12-02T22:37:02.256Z,101142.43
2017-12-02T22:40:04.476Z,101122.06
2017-12-02T22:43:06.049Z,101125.91
2017-12-02T22:46:09.674Z,101122.29
2017-12-02T22:49:11.999Z,101124.02
2017-12-02T22:52:14.637Z,101110.89
2017-12-02T22:55:19.019Z,101110.00
2017-12-02T22:58:22.695Z,101125.33
2017-12-02T23:01:25.096Z,101117.21
2017-12-02T23:04:32.182Z,101120.02
2017-12-02T23:07:35.753Z,101117.41
2017-12-02T23:10:37.303Z,101117.37
2017-12-02T23:13:38.875Z,101102.38
2017-12-02T23:16:40.434Z,101107.68
2017-12-02T23:19:41.891Z,101100.30
2017-12-02T23:22:43.321Z,101106.24
2017-12-02T23:25:44.910Z,101109.34
2017-12-02T23:28:46.344Z,101101.86
2017-12-02T23:31:47.770Z,101109.00
2017-12-02T23:34:50.058Z,101095.53
2017-12-02T23:37:51.539Z,101091.65
2017-12-02T23:40:52.975Z,101080.26
2017-12-02T23:43:54.324Z,101073.81
2017-12-02T23:46:55.795Z,101073.24
2017-12-02T23:49:57.159Z,101072.30
2017-12-02T23:52:58.565Z,101078.26
2017-12-02T23:55:59.961Z,101064.00
2017-12-02T23:59:01.351Z,101072.41
